Friday, February 23, 2018, 1:43 PM EST
Back to Local

KNUI, Knui Webster Field Annex

Location: Saint Inigoes, MD, United States Lat: 38.15
Local Time: 1:43 PM EST (18:43 GMT) Lon: -76.417
Time Zone: US/Eastern Elev: 19 ft

Show me the last for .
Show Coded

Time T Td Feel RH Dir Speed Gust Alt SLP Vis Weather Sky Remarks
2018-02-23 13:30 45 44 44 96 310° 3 - 30.45 - 2 BR OVC005 None
2018-02-23 13:14 45 43 44 92 340° 3 - 30.46 - 3 BR OVC005 None
2018-02-23 11:53 45 43 44 92 Variable 3 - 30.50 30.50 9 OVC007 None
2018-02-23 10:53 44 43 43 95 30° 3 - 30.53 30.52 4 BR OVC006 None
2018-02-23 10:42 44 43 42 95 30° 5 - 30.53 - 3 BR OVC006 None
2018-02-23 10:24 43 42 41 96 30° 3 - 30.54 - 2 BR OVC005 None
2018-02-23 09:22 42 42 38 100 40° 7 - 30.55 - 2 BR OVC005 None
2018-02-23 08:53 42 42 39 100 20° 5 - 30.56 30.56 1 BR OVC005 None
2018-02-23 08:31 42 42 39 100 30° 5 - 30.57 - 1 BR OVC005 None
2018-02-23 07:53 42 31 39 64 20° 5 - 30.57 30.57 1 HZ OVC004 None
2018-02-23 06:46 42 31 40 64 30° 3 - 30.56 - 1 HZ OVC004 None
2018-02-23 05:53 42 31 38 64 60° 7 - 30.54 30.53 2 HZ OVC004 None
2018-02-23 04:53 42 31 39 64 30° 5 - 30.56 30.56 2 HZ OVC004 None
2018-02-23 02:53 41 31 36 67 40° 7 - 30.56 30.55 3 HZ OVC005 None
2018-02-23 02:33 41 31 36 67 50° 7 - 30.55 - 2 HZ OVC008 None
2018-02-22 23:49 43 32 35 65 30° 7 17 30.57 - 10 BKN008 OVC012 1-hr Precip Total: Trace
2018-02-22 23:36 42 32 37 67 50° 9 - 30.58 - 10 OVC011 1-hr Precip Total: Trace
2018-02-22 19:53 45 44 40 96 40° 10 - 30.54 30.53 4 BR BKN007 OVC013 None
2018-02-22 18:53 46 44 38 92 40° 14 20 30.52 30.52 2 BR OVC006 6-hr Min Temp (7pm): 46.0°F
6-hr Max Temp (7pm): 51.1°F
2018-02-22 18:44 46 44 40 92 20° 13 - 30.53 - 2 BR OVC007 None
2018-02-22 18:19 47 44 42 89 30° 10 - 30.50 - 4 BR OVC009 None
2018-02-22 16:53 49 47 45 92 10° 9 - 30.45 30.45 5 BR OVC005 None
2018-02-22 15:53 50 48 48 92 30° 6 - 30.41 30.40 3 BR OVC004 None
2018-02-22 15:27 50 48 46 92 40° 9 - 30.39 - 2 BR BKN005 OVC011 None
2018-02-22 14:53 50 49 47 96 40° 7 - 30.40 30.40 1 BR OVC005 None
2018-02-22 14:33 50 48 47 92 40° 8 - 30.40 - 1 BR OVC008 None
2018-02-22 13:53 51 49 - 92 40° 9 - 30.41 30.41 1 BR OVC008 None

Support USWX by starting your Amazon purchase here.